Amarant — CQSF — position and weather

sailwx.info

Track history (hours):
 
Tides and Currents Weather Stations Pressure Air Temp Water Temp Dewpoint Dewpoint Depression Visibility Wind Speed Wind Dir Waves Ship Positions

Amarant

Last reported at 2016-May-03 23:26 UTC. Time now 2016-May-03 23:58 UTC.
Position N 54°11' E 009°31'.

Length 123 m; draft 7.3 m.

Type: Tanker. MMSI: 255623000.

Date/timePositionNaut miles runAvg speedWind from/ knotsBaromVisibWave heightAir tempDewpointWater temp
2016-May-03 23:26N 54°11' E 009°31'11 5.4
2016-May-03 21:26N 54°20' E 009°43'6 5.2
2016-May-03 20:18N 54°21' E 009°53'8 4.6
2016-May-03 18:33N 54°22' E 010°07'3 3.2
2016-May-03 17:33N 54°24' E 010°12'1111.2
2016-May-03 16:33N 54°32' E 010°25'1212.4
2016-May-03 15:33N 54°35' E 010°46'1313.4
2016-May-03 14:33N 54°36' E 011°09'1313.1
2016-May-03 13:33N 54°31' E 011°29'1212.4
2016-May-03 12:33N 54°26' E 011°49'1212.4
2016-May-03 11:33N 54°28' E 012°10'1312.5
2016-May-03 10:32N 54°39' E 012°21'1413.2
2016-May-03 09:28N 54°47' E 012°41'1613.1
2016-May-03 08:17N 54°52' E 013°06'1013.5
2016-May-03 07:33N 54°55' E 013°23'1313.5
2016-May-03 06:33N 55°00' E 013°45'1313.4
2016-May-03 05:33N 55°05' E 014°06'1313.5
2016-May-03 04:33N 55°16' E 014°20'1313.4
2016-May-03 03:33N 55°27' E 014°35'1313.3
2016-May-03 02:34N 55°33' E 014°55'1313.2
2016-May-03 01:33N 55°39' E 015°16'1413.3
2016-May-03 00:31N 55°46' E 015°37'1313.5
2016-May-02 23:33N 55°53' E 015°57'19 0.4
2016-Apr-30 21:09N 55°58' E 016°29'1113.7
2016-Apr-30 20:23N 55°53' E 016°13'1113.6
2016-Apr-30 19:33N 55°48' E 015°55'1413.7
2016-Apr-30 18:33N 55°41' E 015°34'1413.7
2016-Apr-30 17:33N 55°34' E 015°12'1413.7
2016-Apr-30 16:34N 55°28' E 014°51'1413.7
2016-Apr-30 15:33N 55°19' E 014°33'1413.8
2016-Apr-30 14:33N 55°08' E 014°17'1312.9
2016-Apr-30 13:33N 55°01' E 013°59'1313.3
2016-Apr-30 12:33N 54°56' E 013°37'1413.5
2016-Apr-30 11:33N 54°51' E 013°15'1313.5
2016-Apr-30 10:33N 54°47' E 012°53'1713.4
2016-Apr-30 09:15N 54°38' E 012°27'913.1
2016-Apr-30 08:33N 54°31' E 012°16'1211.6
2016-Apr-30 07:34N 54°24' E 012°01'1312.9
2016-Apr-30 06:33N 54°26' E 011°39'1313.1
2016-Apr-30 05:33N 54°32' E 011°19'1313.0
2016-Apr-30 04:34N 54°34' E 010°57'1414.4
2016-Apr-30 03:34N 54°33' E 010°32'1312.7
2016-Apr-30 02:33N 54°26' E 010°14'5 4.9
2016-Apr-30 01:32N 54°22' E 010°08'0 0.5
2016-Apr-30 00:33N 54°22' E 010°08'0 0.0
2016-Apr-29 23:33N 54°22' E 010°08'1 1.2
2016-Apr-29 22:33N 54°22' E 010°06'7 7.1
2016-Apr-29 21:33N 54°21' E 009°53'5 5.5
2016-Apr-29 20:33N 54°20' E 009°44'8 7.5
2016-Apr-29 19:33N 54°14' E 009°36'12 5.7
2016-Apr-29 17:28N 54°07' E 009°20'8 8.4
2016-Apr-29 16:33N 53°60' E 009°17'8 8.0
2016-Apr-29 15:33N 53°54' E 009°09'2 1.8
2016-Apr-29 14:34N 53°53' E 009°06'1313.5
2016-Apr-29 13:34N 53°53' E 008°43'1615.7
2016-Apr-29 12:33N 53°59' E 008°19'1515.2
2016-Apr-29 11:33N 53°57' E 007°53'1515.4
2016-Apr-29 10:33N 53°54' E 007°28'1514.9
2016-Apr-29 09:33N 53°51' E 007°03'1414.5
2016-Apr-29 08:33N 53°47' E 006°39'1414.1
2016-Apr-29 07:33N 53°44' E 006°16'1413.9
2016-Apr-29 06:34N 53°39' E 005°54'1413.7
2016-Apr-29 05:33N 53°35' E 005°32'1313.4
2016-Apr-29 04:33N 53°30' E 005°11'5312.9
2016-Apr-29 00:25N 52°49' E 004°14'1213.8
2016-Apr-28 23:33N 52°41' E 004°00'5614.0
2016-Apr-28 19:31N 51°50' E 003°20'1111.8
2016-Apr-28 18:33N 51°39' E 003°21'1514.5
2016-Apr-28 17:33N 51°27' E 003°34'10 9.7
2016-Apr-28 16:33N 51°21' E 003°47'10 9.8
2016-Apr-28 15:33N 51°26' E 004°01'8 8.4
2016-Apr-28 14:33N 51°23' E 004°13'3 3.2
2016-Apr-28 13:33N 51°21' E 004°17'1 0.5
2016-Apr-28 12:33N 51°21' E 004°18'6 5.5
2016-Apr-28 11:33N 51°16' E 004°21'1 0.8
2016-Apr-28 10:33N 51°15' E 004°22'0 0.0
2016-Apr-28 09:33N 51°15' E 004°22'0 0.0
2016-Apr-28 08:33N 51°15' E 004°22'0 0.0
2016-Apr-28 07:33N 51°15' E 004°22'0 0.0
2016-Apr-28 06:33N 51°15' E 004°22'0 0.0
2016-Apr-28 05:33N 51°15' E 004°22'0 0.0
2016-Apr-28 04:33N 51°15' E 004°22'0 0.0
2016-Apr-28 03:33N 51°15' E 004°22'0 0.0
2016-Apr-28 02:33N 51°15' E 004°22'0 0.0
2016-Apr-28 01:33N 51°15' E 004°22'0 0.0
2016-Apr-28 00:33N 51°15' E 004°22'0 0.0
2016-Apr-27 23:33N 51°15' E 004°22'0 0.0
2016-Apr-27 22:33N 51°15' E 004°22'0 0.0
2016-Apr-27 21:33N 51°15' E 004°22'0 0.0
2016-Apr-27 20:33N 51°15' E 004°22'0 0.0
2016-Apr-27 19:33N 51°15' E 004°22'0 0.0
2016-Apr-27 18:32N 51°15' E 004°22'0 0.0
2016-Apr-27 17:32N 51°15' E 004°22'0 0.0
2016-Apr-27 16:32N 51°15' E 004°22'0 0.0
2016-Apr-27 15:32N 51°15' E 004°22'0 0.0
2016-Apr-27 14:32N 51°15' E 004°22'0 0.0
2016-Apr-27 13:32N 51°15' E 004°22'0 0.0
2016-Apr-27 12:32N 51°15' E 004°22'0 0.0
2016-Apr-27 11:32N 51°15' E 004°22'2 2.3
2016-Apr-27 10:33N 51°17' E 004°20'1 0.6
2016-Apr-27 09:33N 51°17' E 004°19'5 4.6
2016-Apr-27 08:33N 51°21' E 004°15'9 8.5
2016-Apr-27 07:33N 51°23' E 004°02'6 6.2
2016-Apr-27 06:33N 51°21' E 003°53'1111.5
2016-Apr-27 05:33N 51°26' E 003°36'10 9.9
2016-Apr-27 04:33N 51°33' E 003°25'1210.4
2016-Apr-27 03:26N 51°43' E 003°15'6 0.6
2016-Apr-26 17:12N 51°48' E 003°20'0 0.0
2016-Apr-26 16:27N 51°48' E 003°20'0 0.0
2016-Apr-26 15:33N 51°48' E 003°20'0 0.1
2016-Apr-26 14:33N 51°48' E 003°20'0 0.0
2016-Apr-26 08:27N 51°48' E 003°20'15210.7
2016-Apr-25 18:18N 54°07' E 005°01'1013.0
2016-Apr-25 17:33N 54°15' E 005°11'6613.0
2016-Apr-25 12:30N 55°11' E 006°10'1313.3
2016-Apr-25 11:32N 55°22' E 006°21'1313.5
2016-Apr-25 10:33N 55°33' E 006°33'1413.5
2016-Apr-25 09:32N 55°45' E 006°45'20513.5
2016-Apr-24 18:18N 58°45' E 009°47'1114.1
2016-Apr-24 17:33N 58°56' E 009°47'11 0.7
2016-Apr-24 03:11N 59°05' E 009°38'810.3
2016-Apr-24 02:22N 58°58' E 009°48'1012.2
2016-Apr-24 01:33N 58°49' E 009°56'1313.1
2016-Apr-24 00:33N 58°38' E 010°09'1313.2
2016-Apr-23 23:33N 58°27' E 010°22'  
Track history (hours):
 
Tides and Currents Weather Stations Pressure Air Temp Water Temp Dewpoint Dewpoint Depression Visibility Wind Speed Wind Dir Waves Ship Positions

Amarant

Last reported at 2016-May-03 23:26 UTC. Time now 2016-May-03 23:58 UTC.
Position N 54°11' E 009°31'.

Length 123 m; draft 7.3 m.

Type: Tanker. MMSI: 255623000.

Date/timePositionNaut miles runAvg speedWind from/ knotsBaromVisibWave heightAir tempDewpointWater temp
2016-May-03 23:26N 54°11' E 009°31'11 5.4
2016-May-03 21:26N 54°20' E 009°43'6 5.2
2016-May-03 20:18N 54°21' E 009°53'8 4.6
2016-May-03 18:33N 54°22' E 010°07'3 3.2
2016-May-03 17:33N 54°24' E 010°12'1111.2
2016-May-03 16:33N 54°32' E 010°25'1212.4
2016-May-03 15:33N 54°35' E 010°46'1313.4
2016-May-03 14:33N 54°36' E 011°09'1313.1
2016-May-03 13:33N 54°31' E 011°29'1212.4
2016-May-03 12:33N 54°26' E 011°49'1212.4
2016-May-03 11:33N 54°28' E 012°10'1312.5
2016-May-03 10:32N 54°39' E 012°21'1413.2
2016-May-03 09:28N 54°47' E 012°41'1613.1
2016-May-03 08:17N 54°52' E 013°06'1013.5
2016-May-03 07:33N 54°55' E 013°23'1313.5
2016-May-03 06:33N 55°00' E 013°45'1313.4
2016-May-03 05:33N 55°05' E 014°06'1313.5
2016-May-03 04:33N 55°16' E 014°20'1313.4
2016-May-03 03:33N 55°27' E 014°35'1313.3
2016-May-03 02:34N 55°33' E 014°55'1313.2
2016-May-03 01:33N 55°39' E 015°16'1413.3
2016-May-03 00:31N 55°46' E 015°37'1313.5
2016-May-02 23:33N 55°53' E 015°57'19 0.4
2016-Apr-30 21:09N 55°58' E 016°29'1113.7
2016-Apr-30 20:23N 55°53' E 016°13'1113.6
2016-Apr-30 19:33N 55°48' E 015°55'1413.7
2016-Apr-30 18:33N 55°41' E 015°34'1413.7
2016-Apr-30 17:33N 55°34' E 015°12'1413.7
2016-Apr-30 16:34N 55°28' E 014°51'1413.7
2016-Apr-30 15:33N 55°19' E 014°33'1413.8
2016-Apr-30 14:33N 55°08' E 014°17'1312.9
2016-Apr-30 13:33N 55°01' E 013°59'1313.3
2016-Apr-30 12:33N 54°56' E 013°37'1413.5
2016-Apr-30 11:33N 54°51' E 013°15'1313.5
2016-Apr-30 10:33N 54°47' E 012°53'1713.4
2016-Apr-30 09:15N 54°38' E 012°27'913.1
2016-Apr-30 08:33N 54°31' E 012°16'1211.6
2016-Apr-30 07:34N 54°24' E 012°01'1312.9
2016-Apr-30 06:33N 54°26' E 011°39'1313.1
2016-Apr-30 05:33N 54°32' E 011°19'1313.0
2016-Apr-30 04:34N 54°34' E 010°57'1414.4
2016-Apr-30 03:34N 54°33' E 010°32'1312.7
2016-Apr-30 02:33N 54°26' E 010°14'5 4.9
2016-Apr-30 01:32N 54°22' E 010°08'0 0.5
2016-Apr-30 00:33N 54°22' E 010°08'0 0.0
2016-Apr-29 23:33N 54°22' E 010°08'1 1.2
2016-Apr-29 22:33N 54°22' E 010°06'7 7.1
2016-Apr-29 21:33N 54°21' E 009°53'5 5.5
2016-Apr-29 20:33N 54°20' E 009°44'8 7.5
2016-Apr-29 19:33N 54°14' E 009°36'12 5.7
2016-Apr-29 17:28N 54°07' E 009°20'8 8.4
2016-Apr-29 16:33N 53°60' E 009°17'8 8.0
2016-Apr-29 15:33N 53°54' E 009°09'2 1.8
2016-Apr-29 14:34N 53°53' E 009°06'1313.5
2016-Apr-29 13:34N 53°53' E 008°43'1615.7
2016-Apr-29 12:33N 53°59' E 008°19'1515.2
2016-Apr-29 11:33N 53°57' E 007°53'1515.4
2016-Apr-29 10:33N 53°54' E 007°28'1514.9
2016-Apr-29 09:33N 53°51' E 007°03'1414.5
2016-Apr-29 08:33N 53°47' E 006°39'1414.1
2016-Apr-29 07:33N 53°44' E 006°16'1413.9
2016-Apr-29 06:34N 53°39' E 005°54'1413.7
2016-Apr-29 05:33N 53°35' E 005°32'1313.4
2016-Apr-29 04:33N 53°30' E 005°11'5312.9
2016-Apr-29 00:25N 52°49' E 004°14'1213.8
2016-Apr-28 23:33N 52°41' E 004°00'5614.0
2016-Apr-28 19:31N 51°50' E 003°20'1111.8
2016-Apr-28 18:33N 51°39' E 003°21'1514.5
2016-Apr-28 17:33N 51°27' E 003°34'10 9.7
2016-Apr-28 16:33N 51°21' E 003°47'10 9.8
2016-Apr-28 15:33N 51°26' E 004°01'8 8.4
2016-Apr-28 14:33N 51°23' E 004°13'3 3.2
2016-Apr-28 13:33N 51°21' E 004°17'1 0.5
2016-Apr-28 12:33N 51°21' E 004°18'6 5.5
2016-Apr-28 11:33N 51°16' E 004°21'1 0.8
2016-Apr-28 10:33N 51°15' E 004°22'0 0.0
2016-Apr-28 09:33N 51°15' E 004°22'0 0.0
2016-Apr-28 08:33N 51°15' E 004°22'0 0.0
2016-Apr-28 07:33N 51°15' E 004°22'0 0.0
2016-Apr-28 06:33N 51°15' E 004°22'0 0.0
2016-Apr-28 05:33N 51°15' E 004°22'0 0.0
2016-Apr-28 04:33N 51°15' E 004°22'0 0.0
2016-Apr-28 03:33N 51°15' E 004°22'0 0.0
2016-Apr-28 02:33N 51°15' E 004°22'0 0.0
2016-Apr-28 01:33N 51°15' E 004°22'0 0.0
2016-Apr-28 00:33N 51°15' E 004°22'0 0.0
2016-Apr-27 23:33N 51°15' E 004°22'0 0.0
2016-Apr-27 22:33N 51°15' E 004°22'0 0.0
2016-Apr-27 21:33N 51°15' E 004°22'0 0.0
2016-Apr-27 20:33N 51°15' E 004°22'0 0.0
2016-Apr-27 19:33N 51°15' E 004°22'0 0.0
2016-Apr-27 18:32N 51°15' E 004°22'0 0.0
2016-Apr-27 17:32N 51°15' E 004°22'0 0.0
2016-Apr-27 16:32N 51°15' E 004°22'0 0.0
2016-Apr-27 15:32N 51°15' E 004°22'0 0.0
2016-Apr-27 14:32N 51°15' E 004°22'0 0.0
2016-Apr-27 13:32N 51°15' E 004°22'0 0.0
2016-Apr-27 12:32N 51°15' E 004°22'0 0.0
2016-Apr-27 11:32N 51°15' E 004°22'2 2.3
2016-Apr-27 10:33N 51°17' E 004°20'1 0.6
2016-Apr-27 09:33N 51°17' E 004°19'5 4.6
2016-Apr-27 08:33N 51°21' E 004°15'9 8.5
2016-Apr-27 07:33N 51°23' E 004°02'6 6.2
2016-Apr-27 06:33N 51°21' E 003°53'1111.5
2016-Apr-27 05:33N 51°26' E 003°36'10 9.9
2016-Apr-27 04:33N 51°33' E 003°25'1210.4
2016-Apr-27 03:26N 51°43' E 003°15'6 0.6
2016-Apr-26 17:12N 51°48' E 003°20'0 0.0
2016-Apr-26 16:27N 51°48' E 003°20'0 0.0
2016-Apr-26 15:33N 51°48' E 003°20'0 0.1
2016-Apr-26 14:33N 51°48' E 003°20'0 0.0
2016-Apr-26 08:27N 51°48' E 003°20'15210.7
2016-Apr-25 18:18N 54°07' E 005°01'1013.0
2016-Apr-25 17:33N 54°15' E 005°11'6613.0
2016-Apr-25 12:30N 55°11' E 006°10'1313.3
2016-Apr-25 11:32N 55°22' E 006°21'1313.5
2016-Apr-25 10:33N 55°33' E 006°33'1413.5
2016-Apr-25 09:32N 55°45' E 006°45'20513.5
2016-Apr-24 18:18N 58°45' E 009°47'1114.1
2016-Apr-24 17:33N 58°56' E 009°47'11 0.7
2016-Apr-24 03:11N 59°05' E 009°38'810.3
2016-Apr-24 02:22N 58°58' E 009°48'1012.2
2016-Apr-24 01:33N 58°49' E 009°56'1313.1
2016-Apr-24 00:33N 58°38' E 010°09'1313.2
2016-Apr-23 23:33N 58°27' E 010°22'  

Dump ship's entire track history